Delta, CO (81416)

5:49 PM MDT on August 27, 2016 (GMT -0600)
Garnet Mesa | | Change Station

Elev 5046 ft 38.75 °N, 108.04 °W | Updated 1 second ago

Mostly Cloudy
Mostly Cloudy
68.1 °F
Feels Like 68.1 °F
N
0.0
Wind Variable Wind from WSW
Gusts 0.0 mph

Today
High -- | Low -- °F
--% Chance of Precip.
Yesterday
High -- | Low -- °F
Precip. -- in
Pressure 30.14 in
Visibility 10.0 miles
Clouds Mostly Cloudy 11000 ft
Dew Point 49 °F
Humidity 51%
Rainfall 0.00 in
Snow Depth Not available.
6:37 AM 7:49 PM
Waning Crescent, 20% visible
METAR KAJZ 272115Z AUTO 16016G24KT 10SM BKN110 26/06 A3014 RMK AO2 LTG DSNT SE THRU SW T02580060
Pressure 30.14 in
Visibility 10.0 miles
Clouds Mostly Cloudy 11000 ft
Dew Point 49 °F
Humidity 51%
Rainfall 0.00 in
Snow Depth Not available.
6:37 AM 7:49 PM
Waning Crescent, 20% visible
METAR KAJZ 272115Z AUTO 16016G24KT 10SM BKN110 26/06 A3014 RMK AO2 LTG DSNT SE THRU SW T02580060

10-Day Weather Forecast

Almanac

Astronomy

Aug. 27, 2016 Rise Set
Actual Time
Civil Twilight
Nautical Twilight
Astronomical Twilight
Moon
Length of Visible Light
Length of Day
Tomorrow will be .
, % of the Moon is Illuminated

Today's Extremes

State Highs State Lows

Community

WunderPhotos

Upload Photos

1,935,469 photos uploaded!

WunderBlog® & News

Nearby

Air Quality

  Air Quality AQ Index Pollutant
Not available.

Snow Depth

Station Depth Elevation

Earthquake Activity

City Distance Mag. Time & Date
Minimum magnitude displayed is 2.5.

Coastal Water Temperatures

Place Temperature

Stations

Nearby Weather Stations

Station Location Temp. Windchill Dew Point Humidity Wind Precip. Elev Updated Type
                   

Watches & Warnings

There are currently no watches in effect.